createdAt,value
2022-10-10T00:02:22.538Z,2.57
2022-10-10T00:04:53.028Z,3.87
2022-10-10T00:07:21.097Z,3.33
2022-10-10T00:09:49.374Z,6.20
2022-10-10T00:12:17.376Z,4.10
2022-10-10T00:14:45.413Z,5.63
2022-10-10T00:17:13.423Z,3.87
2022-10-10T00:19:42.765Z,5.07
2022-10-10T00:22:10.768Z,5.23
2022-10-10T00:24:38.703Z,4.03
2022-10-10T00:27:06.605Z,7.50
2022-10-10T00:29:34.529Z,2.67
2022-10-10T00:32:02.515Z,4.07
2022-10-10T00:34:30.498Z,2.87
2022-10-10T00:36:59.828Z,4.40
2022-10-10T00:39:27.764Z,5.67
2022-10-10T00:41:56.017Z,3.83
2022-10-10T00:44:24.328Z,5.80
2022-10-10T00:46:52.326Z,3.53
2022-10-10T00:49:25.180Z,4.17
2022-10-10T00:51:56.530Z,3.97
2022-10-10T00:54:27.120Z,4.30
2022-10-10T00:56:59.256Z,12.23
2022-10-10T00:59:29.174Z,3.03
2022-10-10T01:01:59.737Z,4.50
2022-10-10T01:04:37.936Z,4.00
2022-10-10T01:07:12.917Z,3.83
2022-10-10T01:09:44.471Z,7.10
2022-10-10T01:12:22.306Z,3.03
2022-10-10T01:15:00.603Z,5.43
2022-10-10T01:17:34.458Z,3.80
2022-10-10T01:20:27.611Z,5.70
2022-10-10T01:23:20.216Z,3.20
2022-10-10T01:26:01.380Z,4.27
2022-10-10T01:28:39.442Z,3.93
2022-10-10T01:31:11.652Z,3.87
2022-10-10T01:33:49.393Z,5.40
2022-10-10T01:36:23.621Z,4.90
2022-10-10T01:39:00.156Z,5.27
2022-10-10T01:41:33.379Z,4.77
2022-10-10T01:44:02.832Z,4.07
2022-10-10T01:46:30.895Z,3.03
2022-10-10T01:49:00.510Z,4.07
2022-10-10T01:51:44.332Z,4.07
2022-10-10T01:54:28.277Z,5.50
2022-10-10T01:57:14.742Z,3.63
2022-10-10T01:59:54.713Z,4.67
2022-10-10T02:02:30.290Z,4.90
2022-10-10T02:05:04.613Z,5.50
2022-10-10T02:07:36.473Z,4.33
2022-10-10T02:10:07.493Z,5.40
2022-10-10T02:12:37.232Z,5.37
2022-10-10T02:15:12.899Z,3.17
2022-10-10T02:17:43.121Z,4.13
2022-10-10T02:20:14.496Z,3.63
2022-10-10T02:22:45.309Z,3.83
2022-10-10T02:25:14.338Z,4.57
2022-10-10T02:27:47.878Z,3.50
2022-10-10T02:30:18.339Z,3.60
2022-10-10T02:32:50.472Z,3.60
2022-10-10T02:35:23.420Z,4.50
2022-10-10T02:37:54.151Z,8.43
2022-10-10T02:40:24.985Z,5.27
2022-10-10T02:42:55.462Z,4.27
2022-10-10T02:45:25.397Z,6.13
2022-10-10T02:47:54.031Z,4.43
2022-10-10T02:50:22.519Z,4.90
2022-10-10T02:52:50.746Z,5.47
2022-10-10T02:55:19.069Z,3.73
2022-10-10T02:57:46.989Z,6.20
2022-10-10T03:00:15.571Z,4.93
2022-10-10T03:02:46.227Z,5.23
2022-10-10T03:05:14.664Z,3.70
2022-10-10T03:07:42.771Z,7.33
2022-10-10T03:10:11.367Z,5.57
2022-10-10T03:12:39.366Z,5.13
2022-10-10T03:15:11.480Z,6.47
2022-10-10T03:17:40.017Z,6.67
2022-10-10T03:20:10.659Z,4.00
2022-10-10T03:22:38.672Z,3.43
2022-10-10T03:25:07.470Z,5.17
2022-10-10T03:27:35.761Z,5.57
2022-10-10T03:30:03.869Z,5.10
2022-10-10T03:32:31.940Z,6.20
2022-10-10T03:34:59.886Z,5.53
2022-10-10T03:37:29.248Z,3.97
2022-10-10T03:39:57.246Z,5.27
2022-10-10T03:42:25.381Z,9.27
2022-10-10T03:44:53.427Z,5.40
2022-10-10T03:47:21.561Z,4.17
2022-10-10T03:49:49.569Z,6.97
2022-10-10T03:52:17.547Z,3.70
2022-10-10T03:54:46.921Z,4.77
2022-10-10T03:57:14.962Z,6.00
2022-10-10T03:59:43.155Z,4.90
2022-10-10T04:02:11.180Z,4.30
2022-10-10T04:04:39.331Z,5.17
2022-10-10T04:07:07.330Z,3.73
2022-10-10T04:09:35.360Z,4.60
2022-10-10T04:12:05.117Z,4.27
2022-10-10T04:14:33.116Z,3.30
2022-10-10T04:17:03.256Z,4.03
2022-10-10T04:19:31.626Z,4.10
2022-10-10T04:21:59.799Z,4.83
2022-10-10T04:24:28.163Z,6.00
2022-10-10T04:26:56.169Z,5.47
2022-10-10T04:29:25.636Z,3.83
2022-10-10T04:31:53.647Z,5.03
2022-10-10T04:34:21.682Z,5.60
2022-10-10T04:36:49.710Z,4.47
2022-10-10T04:39:17.921Z,4.47
2022-10-10T04:41:49.865Z,4.37
2022-10-10T04:44:18.287Z,3.90
2022-10-10T04:46:47.735Z,4.43
2022-10-10T04:49:15.651Z,6.83
2022-10-10T04:51:43.731Z,5.60
2022-10-10T04:54:11.907Z,5.90
2022-10-10T04:56:41.197Z,5.57
2022-10-10T04:59:09.209Z,6.17
2022-10-10T05:01:37.294Z,6.10
2022-10-10T05:04:06.886Z,7.70
2022-10-10T05:06:35.464Z,6.43
2022-10-10T05:09:03.783Z,7.80
2022-10-10T05:11:32.007Z,5.23
2022-10-10T05:14:00.092Z,7.37
2022-10-10T05:16:28.133Z,6.40
2022-10-10T05:18:57.235Z,4.77
2022-10-10T05:21:26.952Z,5.10
2022-10-10T05:23:55.090Z,5.13
2022-10-10T05:26:23.134Z,5.03
2022-10-10T05:28:51.042Z,6.53
2022-10-10T05:31:19.010Z,6.60
2022-10-10T05:33:47.089Z,5.60
2022-10-10T05:36:15.380Z,5.17
2022-10-10T05:38:44.819Z,5.97
2022-10-10T05:41:13.586Z,6.37
2022-10-10T05:43:41.864Z,5.20
2022-10-10T05:46:09.899Z,4.00
2022-10-10T05:48:37.895Z,6.80
2022-10-10T05:51:08.092Z,7.43
2022-10-10T05:53:36.287Z,5.37
2022-10-10T05:56:05.954Z,6.07
2022-10-10T05:58:34.042Z,6.13
2022-10-10T06:01:04.705Z,8.50
2022-10-10T06:03:32.897Z,6.27
2022-10-10T06:06:01.488Z,7.20
2022-10-10T06:08:31.451Z,7.50
2022-10-10T06:11:04.717Z,7.37
2022-10-10T06:13:34.512Z,11.10
2022-10-10T06:16:03.100Z,10.13
2022-10-10T06:18:31.076Z,8.83
2022-10-10T06:21:03.014Z,6.73
2022-10-10T06:23:31.127Z,7.83
2022-10-10T06:25:59.276Z,7.03
2022-10-10T06:28:27.771Z,6.33
2022-10-10T06:31:01.753Z,7.77
2022-10-10T06:33:30.307Z,6.13
2022-10-10T06:35:58.379Z,8.03
2022-10-10T06:38:27.612Z,6.87
2022-10-10T06:40:59.723Z,5.40
2022-10-10T06:43:28.474Z,6.77
2022-10-10T06:45:57.916Z,9.00
2022-10-10T06:48:26.303Z,7.77
2022-10-10T06:50:58.930Z,7.53
2022-10-10T06:53:27.797Z,6.60
2022-10-10T06:55:56.323Z,7.53
2022-10-10T06:58:26.484Z,6.43
2022-10-10T07:00:55.795Z,5.17
2022-10-10T07:03:26.239Z,7.93
2022-10-10T07:05:56.362Z,5.97
2022-10-10T07:08:26.054Z,7.00
2022-10-10T07:10:54.316Z,7.27
2022-10-10T07:13:22.687Z,6.27
2022-10-10T07:15:50.974Z,6.40
2022-10-10T07:18:20.233Z,8.47
2022-10-10T07:20:50.240Z,6.47
2022-10-10T07:23:18.822Z,6.13
2022-10-10T07:25:47.172Z,5.53
2022-10-10T07:28:15.351Z,10.80
2022-10-10T07:30:44.994Z,7.93
2022-10-10T07:33:13.715Z,5.87
2022-10-10T07:35:41.881Z,5.83
2022-10-10T07:38:12.720Z,5.90
2022-10-10T07:40:41.589Z,9.27
2022-10-10T07:43:09.599Z,5.23
2022-10-10T07:45:38.074Z,5.17
2022-10-10T07:48:06.856Z,12.33
2022-10-10T07:50:35.509Z,15.17
2022-10-10T07:53:03.956Z,10.03
2022-10-10T07:55:33.660Z,8.83
2022-10-10T07:58:03.887Z,14.33
2022-10-10T08:00:33.369Z,8.63
2022-10-10T08:03:02.068Z,7.57
2022-10-10T08:05:30.548Z,9.17
2022-10-10T08:07:59.073Z,7.90
2022-10-10T08:10:28.824Z,8.20
2022-10-10T08:12:58.499Z,8.90
2022-10-10T08:15:27.931Z,11.30
2022-10-10T08:17:58.981Z,10.20
2022-10-10T08:20:27.584Z,14.57
2022-10-10T08:22:56.535Z,10.27
2022-10-10T08:25:25.051Z,11.10
2022-10-10T08:27:53.465Z,14.97
2022-10-10T08:30:23.289Z,12.10
2022-10-10T08:32:52.052Z,7.23
2022-10-10T08:35:20.662Z,13.47
2022-10-10T08:37:49.954Z,13.67
2022-10-10T08:40:22.487Z,12.23
2022-10-10T08:42:55.448Z,11.93
2022-10-10T08:45:28.876Z,13.60
2022-10-10T08:48:01.374Z,17.70
2022-10-10T08:50:34.210Z,13.93
2022-10-10T08:53:07.526Z,14.20
2022-10-10T08:55:39.981Z,11.27
2022-10-10T08:58:16.547Z,13.07
2022-10-10T09:00:49.642Z,10.33
2022-10-10T09:03:26.379Z,11.13
2022-10-10T09:06:09.505Z,13.50
2022-10-10T09:08:49.482Z,11.27
2022-10-10T09:11:30.926Z,15.90
2022-10-10T09:14:09.466Z,14.03
2022-10-10T09:16:47.083Z,15.83
2022-10-10T09:19:29.499Z,11.97
2022-10-10T09:22:04.334Z,13.00
2022-10-10T09:24:53.385Z,10.73
2022-10-10T09:27:28.185Z,10.80
2022-10-10T09:30:04.539Z,10.77
2022-10-10T09:32:57.702Z,13.13
2022-10-10T09:35:41.980Z,11.77
2022-10-10T09:38:27.157Z,11.47
2022-10-10T09:41:02.587Z,8.40
2022-10-10T09:43:34.947Z,8.77
2022-10-10T09:46:19.139Z,13.40
2022-10-10T09:49:04.241Z,13.27
2022-10-10T11:38:25.113Z,7.17
2022-10-10T11:44:27.136Z,7.47
2022-10-10T11:47:01.633Z,10.67
2022-10-10T11:49:38.233Z,9.00
2022-10-10T11:52:33.719Z,8.63
2022-10-10T11:55:10.794Z,11.27
2022-10-10T11:57:43.897Z,7.50
2022-10-10T12:00:16.103Z,10.13
2022-10-10T12:02:45.845Z,7.23
2022-10-10T12:05:24.797Z,10.67
2022-10-10T12:08:15.482Z,10.73
2022-10-10T12:10:52.481Z,10.13
2022-10-10T12:13:30.609Z,11.80
2022-10-10T12:16:04.375Z,8.20
2022-10-10T12:18:44.074Z,7.77
2022-10-10T12:21:16.104Z,10.00
2022-10-10T12:23:59.019Z,11.90
2022-10-10T12:27:07.652Z,20.17
2022-10-10T12:29:48.977Z,10.03
2022-10-10T12:32:29.023Z,10.40
2022-10-10T12:35:03.852Z,9.83
2022-10-10T12:37:33.964Z,12.50
2022-10-10T12:40:35.218Z,9.53
2022-10-10T12:43:25.572Z,9.80
2022-10-10T12:46:23.091Z,10.63
2022-10-10T12:49:24.178Z,13.07
2022-10-10T12:52:05.401Z,8.97
2022-10-10T12:54:42.200Z,10.33
2022-10-10T12:57:22.999Z,9.17
2022-10-10T12:59:55.170Z,10.80
2022-10-10T13:02:28.435Z,8.53
2022-10-10T13:05:00.405Z,6.53
2022-10-10T13:07:30.224Z,11.83
2022-10-10T13:10:07.954Z,12.90
2022-10-10T13:12:36.651Z,13.30
2022-10-10T13:15:21.336Z,8.90
2022-10-10T13:17:50.449Z,9.40
2022-10-10T13:20:38.935Z,13.97
2022-10-10T13:23:09.511Z,9.43
2022-10-10T13:25:40.739Z,8.33
2022-10-10T13:28:19.006Z,9.93
2022-10-10T13:30:50.714Z,12.03
2022-10-10T13:33:21.069Z,9.53
2022-10-10T13:35:50.740Z,8.53
2022-10-10T13:38:21.262Z,5.63
2022-10-10T13:40:50.302Z,8.77
2022-10-10T13:43:20.797Z,4.43
2022-10-10T13:45:56.650Z,7.47
2022-10-10T13:48:38.489Z,9.30
2022-10-10T13:51:10.421Z,7.53
2022-10-10T13:53:51.827Z,12.33
2022-10-10T13:56:26.417Z,13.27
2022-10-10T13:58:57.330Z,10.00
2022-10-10T14:01:39.604Z,10.10
2022-10-10T14:04:19.531Z,11.17
2022-10-10T14:07:04.073Z,11.23
2022-10-10T14:09:35.548Z,9.40
2022-10-10T14:12:06.078Z,10.20
2022-10-10T14:14:36.883Z,11.80
2022-10-10T14:17:07.132Z,7.60
2022-10-10T14:19:35.350Z,11.30
2022-10-10T14:22:03.524Z,11.77
2022-10-10T14:24:32.450Z,11.30
2022-10-10T14:27:08.042Z,8.93
2022-10-10T14:29:36.183Z,6.70
2022-10-10T14:32:06.087Z,6.63
2022-10-10T14:34:34.073Z,10.23
2022-10-10T14:37:16.750Z,6.47
2022-10-10T14:39:45.303Z,9.57
2022-10-10T14:42:15.897Z,8.03
2022-10-10T14:44:45.591Z,6.77
2022-10-10T14:47:25.509Z,6.33
2022-10-10T14:49:57.064Z,5.10
2022-10-10T14:52:25.405Z,8.10
2022-10-10T14:54:53.480Z,9.43
2022-10-10T14:57:22.694Z,10.43
2022-10-10T14:59:50.947Z,6.77
2022-10-10T15:02:23.230Z,8.10
2022-10-10T15:04:52.000Z,11.87
2022-10-10T15:07:20.511Z,4.73
2022-10-10T15:12:43.199Z,8.83
2022-10-10T15:15:14.611Z,8.50
2022-10-10T15:17:44.574Z,5.60
2022-10-10T15:20:14.024Z,7.13
2022-10-10T15:22:46.142Z,7.93
2022-10-10T15:25:14.416Z,11.13
2022-10-10T15:27:42.810Z,7.47
2022-10-10T15:30:12.358Z,10.03
2022-10-10T15:32:41.826Z,10.07
2022-10-10T15:35:15.788Z,7.57
2022-10-10T15:37:44.528Z,7.90
2022-10-10T15:40:14.345Z,9.63
2022-10-10T15:42:42.623Z,6.00
2022-10-10T15:45:11.761Z,5.97
2022-10-10T15:47:46.222Z,13.80
2022-10-10T15:50:16.109Z,10.30
2022-10-10T15:52:44.859Z,8.73
2022-10-10T15:55:12.972Z,5.70
2022-10-10T15:57:41.307Z,9.93
2022-10-10T16:00:10.357Z,5.40
2022-10-10T16:02:39.125Z,6.10
2022-10-10T16:05:08.542Z,11.23
2022-10-10T16:07:44.264Z,6.93
2022-10-10T16:10:16.666Z,5.70
2022-10-10T16:12:44.916Z,8.33
2022-10-10T16:15:13.356Z,7.60
2022-10-10T16:17:42.214Z,6.50
2022-10-10T16:20:11.449Z,8.00
2022-10-10T16:22:41.038Z,8.27
2022-10-10T16:25:21.810Z,8.83
2022-10-10T16:27:50.472Z,11.40
2022-10-10T16:30:20.008Z,11.50
2022-10-10T16:32:48.322Z,13.83
2022-10-10T16:35:16.643Z,15.07
2022-10-10T16:37:46.220Z,16.47
2022-10-10T16:40:14.688Z,8.63
2022-10-10T16:42:42.837Z,7.67
2022-10-10T16:45:12.275Z,8.13
2022-10-10T16:47:40.464Z,10.50
2022-10-10T16:50:09.832Z,12.57
2022-10-10T16:52:38.684Z,13.27
2022-10-10T16:55:09.283Z,10.40
2022-10-10T16:57:38.152Z,8.13
2022-10-10T17:00:09.154Z,10.90
2022-10-10T17:02:39.118Z,8.00
2022-10-10T17:05:08.230Z,7.83
2022-10-10T17:07:36.438Z,9.73
2022-10-10T17:10:05.098Z,10.13
2022-10-10T17:12:35.153Z,10.53
2022-10-10T17:15:03.774Z,13.53
2022-10-10T17:17:32.267Z,10.77
2022-10-10T17:20:08.408Z,15.07
2022-10-10T17:26:16.700Z,23.93
2022-10-10T17:28:48.449Z,43.10
2022-10-10T17:31:19.478Z,14.47
2022-10-10T17:33:53.575Z,16.53
2022-10-10T17:36:33.452Z,24.53
2022-10-10T17:39:02.730Z,27.93
2022-10-10T17:41:37.115Z,15.13
2022-10-10T17:50:03.511Z,21.30
2022-10-10T17:52:36.755Z,17.60
2022-10-10T17:55:15.976Z,12.77
2022-10-10T17:57:49.245Z,15.43
2022-10-10T18:00:19.926Z,11.10
2022-10-10T18:02:48.956Z,13.17
2022-10-10T18:05:19.288Z,17.83
2022-10-10T18:07:50.429Z,13.83
2022-10-10T18:10:22.299Z,10.73
2022-10-10T18:12:52.819Z,13.53
2022-10-10T18:15:27.734Z,12.90
2022-10-10T18:17:56.924Z,18.03
2022-10-10T18:20:49.088Z,15.03
2022-10-10T18:23:26.217Z,15.33
2022-10-10T18:26:17.064Z,19.77
2022-10-10T18:28:53.368Z,24.93
2022-10-10T18:31:35.736Z,17.30
2022-10-10T18:34:18.066Z,22.70
2022-10-10T18:36:49.455Z,21.23
2022-10-10T18:39:22.710Z,22.47
2022-10-10T18:42:01.116Z,20.67
2022-10-10T18:44:47.384Z,17.17
2022-10-10T18:50:48.128Z,15.17
2022-10-10T18:53:51.003Z,14.30
2022-10-10T18:56:25.728Z,16.27
2022-10-10T18:58:57.502Z,18.27
2022-10-10T19:01:30.326Z,20.33
2022-10-10T19:04:01.166Z,20.87
2022-10-10T19:06:31.093Z,19.57
2022-10-10T19:09:02.955Z,14.50
2022-10-10T19:11:34.311Z,17.30
2022-10-10T19:14:04.907Z,17.27
2022-10-10T19:16:39.161Z,18.97
2022-10-10T19:19:15.777Z,17.03
2022-10-10T19:21:46.938Z,14.37
2022-10-10T19:24:21.288Z,17.67
2022-10-10T19:26:57.460Z,15.03
2022-10-10T19:29:34.330Z,13.90
2022-10-10T19:32:04.139Z,14.07
2022-10-10T19:35:06.086Z,20.07
2022-10-10T19:37:36.304Z,16.33
2022-10-10T19:40:06.041Z,12.77
2022-10-10T19:42:37.996Z,12.27
2022-10-10T19:45:08.209Z,11.57
2022-10-10T19:47:40.765Z,16.60
2022-10-10T19:50:13.893Z,18.03
2022-10-10T19:55:25.542Z,14.67
2022-10-10T19:57:54.986Z,10.80
2022-10-10T20:03:07.900Z,13.60
2022-10-10T20:05:38.757Z,15.20
2022-10-10T20:08:07.984Z,11.97
2022-10-10T20:10:37.223Z,22.00
2022-10-10T20:13:11.118Z,16.80
2022-10-10T20:15:43.016Z,15.83
2022-10-10T20:18:14.608Z,12.30
2022-10-10T20:20:47.843Z,10.67
2022-10-10T20:23:18.343Z,19.97
2022-10-10T20:26:01.719Z,13.60
2022-10-10T20:28:32.069Z,22.23
2022-10-10T20:31:01.989Z,19.23
2022-10-10T20:33:30.814Z,11.83
2022-10-10T20:36:04.825Z,13.97
2022-10-10T20:38:34.771Z,18.57
2022-10-10T20:41:07.447Z,15.40
2022-10-10T20:43:39.110Z,10.77
2022-10-10T20:46:10.399Z,16.07
2022-10-10T20:48:42.919Z,13.00
2022-10-10T20:51:15.653Z,15.07
2022-10-10T20:53:46.138Z,12.10
2022-10-10T20:56:15.532Z,10.70
2022-10-10T20:58:48.533Z,17.17
2022-10-10T21:01:20.910Z,14.77
2022-10-10T21:03:51.832Z,14.47
2022-10-10T21:06:25.636Z,14.97
2022-10-10T21:08:54.983Z,18.90
2022-10-10T21:11:24.818Z,13.07
2022-10-10T21:13:58.295Z,15.37
2022-10-10T21:16:29.634Z,16.20
2022-10-10T21:18:58.908Z,16.30
2022-10-10T21:21:30.921Z,14.93
2022-10-10T21:24:00.668Z,14.77
2022-10-10T21:26:31.667Z,15.40
2022-10-10T21:29:02.502Z,18.87
2022-10-10T21:31:34.619Z,11.37
2022-10-10T21:34:04.959Z,10.03
2022-10-10T21:36:35.663Z,14.37
2022-10-10T21:39:06.732Z,12.33
2022-10-10T21:41:36.119Z,14.13
2022-10-10T21:44:04.705Z,19.73
2022-10-10T21:46:36.749Z,16.43
2022-10-10T21:49:07.412Z,14.60
2022-10-10T21:51:39.466Z,15.70
2022-10-10T21:54:08.685Z,13.77
2022-10-10T21:56:37.765Z,21.03
2022-10-10T21:59:07.061Z,15.30
2022-10-10T22:01:37.373Z,14.70
2022-10-10T22:04:06.805Z,17.00
2022-10-10T22:06:36.208Z,13.40
2022-10-10T22:09:06.449Z,16.80
2022-10-10T22:11:35.634Z,16.87
2022-10-10T22:14:04.670Z,18.43
2022-10-10T22:16:33.965Z,13.60
2022-10-10T22:19:03.556Z,13.40
2022-10-10T22:21:34.598Z,24.87
2022-10-10T22:24:06.942Z,11.03
2022-10-10T22:26:35.940Z,22.13
2022-10-10T22:29:04.817Z,18.50
2022-10-10T22:31:35.824Z,19.80
2022-10-10T22:34:04.960Z,20.33
2022-10-10T22:36:33.526Z,22.77
2022-10-10T22:39:01.943Z,16.60
2022-10-10T22:41:32.038Z,14.77
2022-10-10T22:44:01.976Z,21.43
2022-10-10T22:46:30.907Z,16.97
2022-10-10T22:48:59.666Z,16.70
2022-10-10T22:51:32.569Z,13.83
2022-10-10T22:54:01.704Z,20.37
2022-10-10T22:56:32.116Z,26.73
2022-10-10T22:59:00.877Z,16.20
2022-10-10T23:01:29.510Z,20.30
2022-10-10T23:04:00.814Z,17.53
2022-10-10T23:06:29.708Z,16.73
2022-10-10T23:08:58.241Z,18.57
2022-10-10T23:11:28.341Z,21.33
2022-10-10T23:13:58.765Z,23.40
2022-10-10T23:16:28.017Z,24.93
2022-10-10T23:18:56.158Z,23.17
2022-10-10T23:21:24.493Z,21.43
2022-10-10T23:23:53.042Z,27.73
2022-10-10T23:26:21.617Z,23.70
2022-10-10T23:28:51.648Z,21.20
2022-10-10T23:31:21.558Z,31.70
2022-10-10T23:33:49.739Z,26.70
2022-10-10T23:36:19.343Z,23.87
2022-10-10T23:38:47.731Z,24.67
2022-10-10T23:41:16.899Z,31.07
2022-10-10T23:43:45.554Z,29.13
2022-10-10T23:46:14.502Z,26.13
2022-10-10T23:48:44.667Z,26.87
2022-10-10T23:51:13.118Z,30.97
2022-10-10T23:53:41.707Z,27.63
2022-10-10T23:56:10.567Z,24.77
2022-10-10T23:58:39.259Z,32.60
